Terminal Aerodrome Forecast
Issued by NWS

Home | Current Version | Previous Version | Text Only | Print | Product List | Glossary Off
Versions: 1 2 3 4 5 6 7 8 9 10 11 12 13 14 15 16 17 18 19 20

753
FTUS43 KABR 072151 AAA
TAFMBG
TAF AMD
KMBG 072151Z 0722/0818 33033G46KT P6SM BKN035
     FM080400 33029G40KT P6SM SCT035
     FM080700 33023G32KT P6SM SCT035=

USA.gov is the U.S. government's official web portal to all federal, state and local government web resources and services.